createdAt,value
2022-10-22T00:00:06.102Z,2.90
2022-10-22T00:02:33.727Z,2.72
2022-10-22T00:05:01.334Z,3.25
2022-10-22T00:07:28.936Z,2.70
2022-10-22T00:09:56.597Z,2.70
2022-10-22T00:12:24.130Z,2.00
2022-10-22T00:14:53.131Z,1.10
2022-10-22T00:17:20.891Z,1.05
2022-10-22T00:19:48.461Z,0.90
2022-10-22T00:22:16.028Z,0.90
2022-10-22T00:24:43.820Z,1.00
2022-10-22T00:27:13.680Z,0.80
2022-10-22T00:29:41.422Z,0.90
2022-10-22T00:32:10.320Z,0.70
2022-10-22T00:34:38.138Z,0.80
2022-10-22T00:37:05.707Z,0.90
2022-10-22T00:39:33.327Z,0.82
2022-10-22T00:42:00.881Z,1.00
2022-10-22T00:45:05.934Z,0.90
2022-10-22T00:47:37.109Z,1.00
2022-10-22T00:50:07.910Z,0.90
2022-10-22T00:52:36.640Z,0.80
2022-10-22T00:55:04.863Z,0.95
2022-10-22T00:57:32.990Z,0.75
2022-10-22T01:00:00.563Z,0.90
2022-10-22T01:02:28.613Z,0.70
2022-10-22T01:04:57.557Z,0.98
2022-10-22T01:07:27.355Z,1.02
2022-10-22T01:10:06.209Z,0.88
2022-10-22T01:12:44.662Z,1.10
2022-10-22T01:15:20.478Z,1.00
2022-10-22T01:17:54.221Z,0.70
2022-10-22T01:20:42.278Z,0.85
2022-10-22T01:23:23.314Z,1.00
2022-10-22T01:25:57.910Z,0.90
2022-10-22T01:28:41.609Z,0.60
2022-10-22T01:31:12.854Z,0.70
2022-10-22T01:33:41.650Z,0.80
2022-10-22T01:36:10.408Z,0.90
2022-10-22T01:38:39.909Z,0.60
2022-10-22T01:41:08.066Z,0.90
2022-10-22T01:43:35.657Z,0.90
2022-10-22T01:46:06.974Z,0.70
2022-10-22T01:48:44.046Z,0.90
2022-10-22T01:51:30.727Z,0.70
2022-10-22T01:54:03.878Z,1.20
2022-10-22T01:56:43.412Z,0.90
2022-10-22T01:59:20.997Z,0.93
2022-10-22T02:01:58.142Z,0.80
2022-10-22T02:04:30.554Z,0.70
2022-10-22T02:07:02.921Z,0.80
2022-10-22T02:09:32.205Z,0.70
2022-10-22T02:14:42.601Z,0.88
2022-10-22T02:17:16.999Z,0.67
2022-10-22T02:19:52.701Z,0.70
2022-10-22T02:22:21.390Z,0.60
2022-10-22T02:24:50.327Z,0.60
2022-10-22T02:27:26.045Z,0.60
2022-10-22T02:29:59.537Z,0.60
2022-10-22T02:32:33.889Z,0.60
2022-10-22T02:35:02.899Z,0.50
2022-10-22T02:37:30.866Z,0.40
2022-10-22T02:39:58.470Z,0.73
2022-10-22T02:42:27.181Z,0.70
2022-10-22T02:44:55.078Z,0.60
2022-10-22T02:47:22.658Z,0.82
2022-10-22T02:49:51.542Z,0.70
2022-10-22T02:52:19.118Z,0.70
2022-10-22T02:54:47.568Z,0.65
2022-10-22T02:57:15.230Z,0.80
2022-10-22T02:59:42.833Z,0.75
2022-10-22T03:02:10.389Z,0.73
2022-10-22T03:04:38.027Z,0.83
2022-10-22T03:07:06.995Z,0.90
2022-10-22T03:09:34.590Z,0.68
2022-10-22T03:12:02.153Z,0.70
2022-10-22T03:14:29.692Z,1.00
2022-10-22T03:16:57.315Z,0.85
2022-10-22T03:19:24.873Z,0.90
2022-10-22T03:21:58.045Z,0.80
2022-10-22T03:24:30.941Z,0.30
2022-10-22T03:26:58.961Z,0.30
2022-10-22T03:29:27.937Z,0.57
2022-10-22T03:31:56.251Z,0.30
2022-10-22T03:34:23.809Z,0.30
2022-10-22T03:36:53.052Z,0.30
2022-10-22T03:39:21.134Z,0.47
2022-10-22T03:41:51.091Z,0.30
2022-10-22T03:44:19.608Z,0.30
2022-10-22T03:46:47.198Z,0.35
2022-10-22T03:49:14.766Z,1.60
2022-10-22T03:51:42.324Z,1.50
2022-10-22T03:54:10.644Z,1.10
2022-10-22T03:56:38.241Z,0.40
2022-10-22T03:59:07.133Z,0.50
2022-10-22T04:01:34.980Z,0.55
2022-10-22T04:04:02.577Z,0.80
2022-10-22T04:06:31.552Z,0.50
2022-10-22T04:09:01.098Z,0.50
2022-10-22T04:11:28.855Z,0.40
2022-10-22T04:13:56.391Z,0.30
2022-10-22T04:16:30.797Z,0.40
2022-10-22T04:18:58.613Z,0.50
2022-10-22T04:21:26.506Z,0.52
2022-10-22T04:23:54.602Z,0.77
2022-10-22T04:26:22.533Z,0.50
2022-10-22T04:28:51.724Z,0.93
2022-10-22T04:31:21.200Z,0.90
2022-10-22T04:33:53.814Z,0.90
2022-10-22T04:36:21.778Z,0.70
2022-10-22T04:38:54.278Z,0.60
2022-10-22T04:41:23.663Z,0.60
2022-10-22T04:43:51.621Z,0.70
2022-10-22T04:46:19.518Z,0.55
2022-10-22T04:48:47.938Z,0.80
2022-10-22T04:51:18.749Z,0.90
2022-10-22T04:53:46.814Z,0.68
2022-10-22T04:56:16.805Z,0.95
2022-10-22T04:58:45.090Z,0.70
2022-10-22T05:01:14.334Z,0.73
2022-10-22T05:03:42.173Z,0.87
2022-10-22T05:06:10.417Z,0.85
2022-10-22T05:08:39.342Z,0.90
2022-10-22T05:11:14.513Z,0.60
2022-10-22T05:13:42.074Z,0.70
2022-10-22T05:16:10.538Z,0.50
2022-10-22T05:18:38.965Z,0.50
2022-10-22T05:21:10.400Z,0.52
2022-10-22T05:23:39.735Z,0.60
2022-10-22T05:26:09.437Z,0.60
2022-10-22T05:28:37.228Z,0.60
2022-10-22T05:31:05.879Z,0.80
2022-10-22T05:33:35.147Z,0.70
2022-10-22T05:36:05.569Z,0.88
2022-10-22T05:38:33.550Z,0.70
2022-10-22T05:41:03.730Z,1.00
2022-10-22T05:43:31.813Z,0.93
2022-10-22T05:46:03.914Z,0.90
2022-10-22T05:51:04.412Z,1.00
2022-10-22T05:53:32.443Z,1.03
2022-10-22T05:56:05.927Z,1.13
2022-10-22T05:58:33.513Z,0.85
2022-10-22T06:01:04.902Z,0.98
2022-10-22T06:03:32.766Z,0.90
2022-10-22T06:06:02.357Z,0.90
2022-10-22T06:08:31.341Z,0.80
2022-10-22T06:10:59.077Z,0.88
2022-10-22T06:13:27.957Z,0.97
2022-10-22T06:15:55.657Z,0.80
2022-10-22T06:18:23.225Z,1.00
2022-10-22T06:20:51.131Z,0.90
2022-10-22T06:23:18.727Z,1.10
2022-10-22T06:25:57.229Z,1.80
2022-10-22T06:31:00.212Z,0.85
2022-10-22T06:33:28.583Z,1.30
2022-10-22T06:35:56.229Z,1.00
2022-10-22T06:38:23.908Z,1.08
2022-10-22T06:40:51.454Z,0.93
2022-10-22T06:43:19.006Z,0.80
2022-10-22T06:45:46.546Z,0.90
2022-10-22T06:48:15.746Z,0.88
2022-10-22T06:50:43.324Z,0.88
2022-10-22T06:53:10.948Z,0.90
2022-10-22T06:55:38.606Z,1.13
2022-10-22T06:58:06.842Z,0.90
2022-10-22T07:00:34.879Z,0.80
2022-10-22T07:03:02.448Z,1.35
2022-10-22T07:05:31.431Z,1.55
2022-10-22T07:07:58.970Z,1.20
2022-10-22T07:10:29.870Z,1.40
2022-10-22T07:12:58.899Z,1.40
2022-10-22T07:15:26.477Z,1.33
2022-10-22T07:17:54.007Z,1.45
2022-10-22T07:20:21.604Z,1.10
2022-10-22T07:22:50.458Z,1.13
2022-10-22T07:25:18.361Z,1.00
2022-10-22T07:27:45.998Z,0.90
2022-10-22T07:30:14.074Z,1.30
2022-10-22T07:32:41.735Z,1.27
2022-10-22T07:35:09.881Z,1.70
2022-10-22T07:37:37.574Z,1.30
2022-10-22T07:40:08.536Z,1.30
2022-10-22T07:42:36.122Z,1.38
2022-10-22T07:45:03.939Z,1.20
2022-10-22T07:47:31.531Z,1.13
2022-10-22T07:49:59.126Z,1.10
2022-10-22T07:52:26.724Z,1.10
2022-10-22T07:54:54.413Z,1.60
2022-10-22T07:57:23.311Z,1.83
2022-10-22T07:59:52.050Z,1.83
2022-10-22T08:02:19.644Z,1.70
2022-10-22T08:04:47.208Z,1.98
2022-10-22T08:07:14.812Z,1.77
2022-10-22T08:09:42.462Z,1.15
2022-10-22T08:12:10.052Z,1.10
2022-10-22T08:14:39.004Z,0.85
2022-10-22T08:17:06.583Z,1.10
2022-10-22T08:19:35.301Z,1.08
2022-10-22T08:22:03.201Z,1.17
2022-10-22T08:24:31.267Z,1.00
2022-10-22T08:27:02.358Z,1.00
2022-10-22T08:29:30.093Z,1.10
2022-10-22T08:31:59.080Z,0.93
2022-10-22T08:34:26.589Z,1.10
2022-10-22T08:36:54.084Z,1.30
2022-10-22T08:39:22.021Z,0.90
2022-10-22T08:41:59.821Z,1.80
2022-10-22T08:44:50.022Z,1.70
2022-10-22T08:47:34.711Z,1.50
2022-10-22T08:50:02.903Z,1.20
2022-10-22T08:52:33.406Z,1.20
2022-10-22T08:55:03.591Z,1.20
2022-10-22T08:57:44.941Z,1.00
2022-10-22T09:00:18.843Z,0.85
2022-10-22T09:02:59.858Z,0.68
2022-10-22T09:05:40.722Z,0.60
2022-10-22T09:08:12.513Z,0.60
2022-10-22T09:10:44.589Z,0.80
2022-10-22T09:13:16.966Z,0.60
2022-10-22T09:15:51.343Z,0.60
2022-10-22T09:18:30.818Z,0.82
2022-10-22T09:21:04.012Z,1.23
2022-10-22T09:23:39.042Z,1.10
2022-10-22T09:26:14.600Z,0.70
2022-10-22T09:28:42.481Z,0.70
2022-10-22T09:31:12.942Z,0.90
2022-10-22T09:33:43.190Z,1.00
2022-10-22T09:36:14.777Z,0.70
2022-10-22T09:38:47.296Z,0.85
2022-10-22T09:41:16.015Z,0.82
2022-10-22T09:43:43.643Z,1.10
2022-10-22T09:46:17.898Z,0.98
2022-10-22T09:48:50.882Z,1.10
2022-10-22T09:51:21.245Z,0.90
2022-10-22T09:53:56.893Z,0.80
2022-10-22T09:56:27.854Z,0.82
2022-10-22T09:58:58.269Z,0.80
2022-10-22T10:01:27.474Z,0.65
2022-10-22T10:04:06.997Z,0.70
2022-10-22T10:06:40.185Z,0.70
2022-10-22T10:09:15.889Z,0.90
2022-10-22T10:11:49.824Z,0.90
2022-10-22T10:14:22.607Z,0.70
2022-10-22T10:16:59.351Z,1.58
2022-10-22T10:19:41.075Z,1.23
2022-10-22T10:22:18.090Z,1.10
2022-10-22T10:25:04.789Z,0.93
2022-10-22T10:27:38.218Z,1.10
2022-10-22T10:30:12.799Z,1.47
2022-10-22T10:32:56.142Z,1.00
2022-10-22T10:35:29.193Z,1.05
2022-10-22T10:38:12.163Z,1.02
2022-10-22T10:40:46.059Z,1.20
2022-10-22T10:43:19.753Z,1.15
2022-10-22T10:45:58.539Z,0.85
2022-10-22T10:48:37.975Z,1.15
2022-10-22T10:51:21.321Z,1.42
2022-10-22T10:54:09.025Z,1.10
2022-10-22T10:56:42.051Z,1.10
2022-10-22T10:59:18.536Z,1.17
2022-10-22T11:02:11.774Z,1.00
2022-10-22T11:05:11.134Z,0.73
2022-10-22T11:07:46.582Z,0.90
2022-10-22T11:10:25.688Z,1.00
2022-10-22T11:12:56.266Z,1.00
2022-10-22T11:15:28.472Z,1.00
2022-10-22T11:18:00.481Z,1.30
2022-10-22T11:20:36.293Z,1.17
2022-10-22T11:23:20.861Z,1.10
2022-10-22T11:25:50.988Z,0.90
2022-10-22T11:28:24.698Z,0.98
2022-10-22T11:31:00.388Z,0.90
2022-10-22T11:33:34.705Z,0.93
2022-10-22T11:36:05.236Z,0.90
2022-10-22T11:38:35.936Z,1.00
2022-10-22T11:41:06.919Z,0.93
2022-10-22T11:43:52.289Z,1.08
2022-10-22T11:46:30.685Z,1.00
2022-10-22T11:49:17.716Z,1.00
2022-10-22T11:51:47.554Z,0.98
2022-10-22T11:54:42.755Z,1.00
2022-10-22T11:57:24.288Z,0.90
2022-10-22T11:59:54.814Z,1.00
2022-10-22T12:02:32.548Z,1.20
2022-10-22T12:05:20.532Z,1.55
2022-10-22T12:07:54.448Z,1.17
2022-10-22T12:10:29.430Z,1.07
2022-10-22T12:12:59.082Z,1.20
2022-10-22T12:15:28.916Z,1.80
2022-10-22T12:18:02.014Z,2.20
2022-10-22T12:20:31.110Z,2.05
2022-10-22T12:23:00.866Z,1.10
2022-10-22T12:25:35.649Z,0.90
2022-10-22T12:28:03.782Z,1.00
2022-10-22T12:30:34.625Z,0.73
2022-10-22T12:33:04.749Z,1.30
2022-10-22T12:35:35.533Z,1.00
2022-10-22T12:38:09.236Z,2.20
2022-10-22T12:40:38.153Z,1.20
2022-10-22T12:43:12.851Z,0.95
2022-10-22T12:45:41.064Z,0.87
2022-10-22T12:48:17.298Z,0.95
2022-10-22T12:50:49.521Z,0.95
2022-10-22T12:53:20.543Z,1.13
2022-10-22T12:55:52.907Z,1.10
2022-10-22T12:58:23.570Z,0.90
2022-10-22T13:00:58.517Z,1.00
2022-10-22T13:03:30.547Z,0.98
2022-10-22T13:05:58.172Z,1.00
2022-10-22T13:08:29.061Z,1.00
2022-10-22T13:11:07.939Z,1.10
2022-10-22T13:13:45.404Z,0.80
2022-10-22T13:16:18.844Z,1.00
2022-10-22T13:18:47.432Z,0.82
2022-10-22T13:21:27.866Z,1.00
2022-10-22T13:24:00.391Z,1.00
2022-10-22T13:26:34.437Z,0.90
2022-10-22T13:29:03.738Z,1.17
2022-10-22T13:31:33.588Z,1.00
2022-10-22T13:34:09.694Z,1.00
2022-10-22T13:36:39.366Z,0.90
2022-10-22T13:39:07.919Z,0.77
2022-10-22T13:44:13.048Z,1.00
2022-10-22T13:46:42.863Z,0.90
2022-10-22T13:49:16.287Z,1.13
2022-10-22T13:51:43.915Z,1.02
2022-10-22T13:54:16.767Z,1.10
2022-10-22T13:56:45.697Z,4.70
2022-10-22T13:59:13.492Z,1.00
2022-10-22T14:01:41.250Z,0.80
2022-10-22T14:04:13.725Z,1.15
2022-10-22T14:06:41.379Z,3.25
2022-10-22T14:09:14.711Z,1.80
2022-10-22T14:11:43.038Z,1.02
2022-10-22T14:14:14.105Z,1.83
2022-10-22T14:16:41.851Z,1.10
2022-10-22T14:19:16.158Z,1.15
2022-10-22T14:21:43.841Z,3.28
2022-10-22T14:24:13.189Z,47.87
2022-10-22T14:26:41.841Z,42.55
2022-10-22T14:29:10.675Z,31.95
2022-10-22T14:31:43.477Z,3.63
2022-10-22T14:34:12.703Z,4.43
2022-10-22T14:36:40.279Z,12.00
2022-10-22T14:39:07.863Z,6.95
2022-10-22T14:41:35.816Z,0.90
2022-10-22T14:44:03.403Z,1.05
2022-10-22T14:46:31.091Z,1.00
2022-10-22T14:49:00.034Z,1.07
2022-10-22T14:51:27.657Z,1.75
2022-10-22T14:53:55.266Z,1.23
2022-10-22T14:56:22.840Z,1.17
2022-10-22T14:58:50.874Z,1.10
2022-10-22T15:01:18.646Z,1.40
2022-10-22T15:03:46.178Z,1.25
2022-10-22T15:06:15.174Z,1.25
2022-10-22T15:08:42.761Z,1.27
2022-10-22T15:11:13.243Z,1.30
2022-10-22T15:13:41.243Z,1.30
2022-10-22T15:16:10.460Z,1.20
2022-10-22T15:18:38.482Z,1.25
2022-10-22T15:21:08.255Z,1.00
2022-10-22T15:23:39.118Z,1.30
2022-10-22T15:26:08.809Z,1.53
2022-10-22T15:28:37.882Z,1.10
2022-10-22T15:31:05.927Z,1.30
2022-10-22T15:33:33.610Z,1.30
2022-10-22T15:36:11.326Z,1.55
2022-10-22T15:38:41.079Z,1.70
2022-10-22T15:41:10.918Z,2.63
2022-10-22T15:43:38.605Z,1.77
2022-10-22T15:46:12.615Z,2.78
2022-10-22T15:48:40.301Z,9.73
2022-10-22T15:51:10.308Z,2.60
2022-10-22T15:53:38.015Z,1.60
2022-10-22T15:56:08.081Z,1.15
2022-10-22T15:58:35.681Z,1.30
2022-10-22T16:01:07.329Z,1.40
2022-10-22T16:03:35.802Z,1.30
2022-10-22T16:06:04.167Z,4.20
2022-10-22T16:08:32.165Z,2.20
2022-10-22T16:10:59.872Z,2.95
2022-10-22T16:13:28.914Z,2.00
2022-10-22T16:15:56.521Z,1.80
2022-10-22T16:18:24.522Z,1.70
2022-10-22T16:20:52.118Z,2.00
2022-10-22T16:23:20.796Z,1.67
2022-10-22T16:25:48.513Z,1.88
2022-10-22T16:28:16.874Z,2.50
2022-10-22T16:30:45.837Z,1.95
2022-10-22T16:33:13.642Z,7.65
2022-10-22T16:35:42.439Z,2.55
2022-10-22T16:38:11.290Z,2.97
2022-10-22T16:40:39.152Z,3.03
2022-10-22T16:43:06.747Z,8.73
2022-10-22T16:45:34.520Z,2.40
2022-10-22T16:48:03.513Z,3.60
2022-10-22T16:50:31.289Z,8.55
2022-10-22T16:52:58.975Z,3.38
2022-10-22T16:55:26.564Z,6.82
2022-10-22T16:57:54.327Z,29.35
2022-10-22T17:00:22.470Z,3.53
2022-10-22T17:02:53.757Z,4.90
2022-10-22T17:05:23.611Z,3.53
2022-10-22T17:07:51.868Z,3.90
2022-10-22T17:10:20.287Z,3.15
2022-10-22T17:12:48.518Z,4.63
2022-10-22T17:15:16.272Z,3.88
2022-10-22T17:17:48.179Z,4.65
2022-10-22T17:20:15.863Z,3.88
2022-10-22T17:22:44.809Z,4.80
2022-10-22T17:25:14.822Z,4.60
2022-10-22T17:27:43.839Z,3.88
2022-10-22T17:30:15.985Z,3.50
2022-10-22T17:32:43.591Z,3.78
2022-10-22T17:35:11.334Z,4.82
2022-10-22T17:37:39.239Z,3.58
2022-10-22T17:40:09.706Z,2.60
2022-10-22T17:42:37.357Z,2.65
2022-10-22T17:45:05.463Z,4.43
2022-10-22T17:47:33.066Z,3.55
2022-10-22T17:50:00.626Z,2.55
2022-10-22T17:52:28.337Z,2.58
2022-10-22T17:54:55.907Z,2.60
2022-10-22T17:57:24.802Z,2.53
2022-10-22T17:59:52.367Z,2.60
2022-10-22T18:02:20.074Z,2.50
2022-10-22T18:04:51.291Z,2.80
2022-10-22T18:07:20.707Z,2.45
2022-10-22T18:09:48.499Z,2.63
2022-10-22T18:12:17.970Z,2.33
2022-10-22T18:14:47.370Z,3.03
2022-10-22T18:19:49.610Z,3.28
2022-10-22T18:22:17.275Z,2.60
2022-10-22T18:24:44.906Z,2.83
2022-10-22T18:27:12.473Z,2.53
2022-10-22T18:29:39.999Z,2.15
2022-10-22T18:32:13.014Z,2.50
2022-10-22T18:34:41.065Z,2.83
2022-10-22T18:37:08.728Z,3.05
2022-10-22T18:39:36.336Z,3.50
2022-10-22T18:42:06.819Z,4.13
2022-10-22T18:44:35.551Z,5.25
2022-10-22T18:47:03.122Z,4.07
2022-10-22T18:49:32.029Z,4.55
2022-10-22T18:51:59.550Z,4.30
2022-10-22T18:54:27.282Z,3.67
2022-10-22T18:56:59.329Z,2.85
2022-10-22T18:59:29.950Z,3.15
2022-10-22T19:01:59.465Z,3.50
2022-10-22T19:04:32.928Z,4.65
2022-10-22T19:07:02.333Z,4.80
2022-10-22T19:09:30.146Z,4.38
2022-10-22T19:11:58.030Z,3.20
2022-10-22T19:14:25.742Z,2.83
2022-10-22T19:16:53.470Z,3.70
2022-10-22T19:19:23.217Z,3.10
2022-10-22T19:21:51.756Z,2.78
2022-10-22T19:24:21.711Z,2.60
2022-10-22T19:26:50.307Z,2.95
2022-10-22T19:29:20.579Z,2.47
2022-10-22T19:31:50.872Z,2.17
2022-10-22T19:34:19.435Z,2.30
2022-10-22T19:36:47.261Z,2.38
2022-10-22T19:39:16.411Z,2.60
2022-10-22T19:41:46.383Z,2.30
2022-10-22T19:44:14.065Z,2.67
2022-10-22T19:46:42.368Z,3.03
2022-10-22T19:49:10.947Z,3.20
2022-10-22T19:51:40.078Z,2.60
2022-10-22T19:54:10.064Z,2.70
2022-10-22T19:56:38.430Z,2.75
2022-10-22T19:59:08.288Z,2.85
2022-10-22T20:01:36.091Z,3.40
2022-10-22T20:04:04.152Z,3.15
2022-10-22T20:06:31.963Z,2.85
2022-10-22T20:08:59.831Z,2.78
2022-10-22T20:11:30.006Z,2.80
2022-10-22T20:13:58.341Z,3.03
2022-10-22T20:16:30.028Z,2.70
2022-10-22T20:19:01.305Z,3.03
2022-10-22T20:21:29.319Z,2.70
2022-10-22T20:23:57.433Z,3.10
2022-10-22T20:26:28.043Z,3.10
2022-10-22T20:28:56.907Z,2.70
2022-10-22T20:31:29.300Z,2.90
2022-10-22T20:33:58.811Z,2.88
2022-10-22T20:36:27.568Z,2.90
2022-10-22T20:39:00.308Z,3.03
2022-10-22T20:41:28.048Z,2.90
2022-10-22T20:43:55.726Z,3.00
2022-10-22T20:46:25.003Z,2.50
2022-10-22T20:48:56.119Z,2.63
2022-10-22T20:51:23.845Z,2.92
2022-10-22T20:53:51.765Z,2.83
2022-10-22T20:56:20.527Z,2.80
2022-10-22T20:58:49.006Z,2.60
2022-10-22T21:01:21.552Z,2.88
2022-10-22T21:03:49.951Z,3.17
2022-10-22T21:06:20.927Z,3.60
2022-10-22T21:08:48.966Z,3.47
2022-10-22T21:11:16.973Z,3.20
2022-10-22T21:13:44.714Z,3.42
2022-10-22T21:16:14.782Z,2.90
2022-10-22T21:18:42.410Z,2.97
2022-10-22T21:21:11.636Z,2.72
2022-10-22T21:23:41.150Z,2.97
2022-10-22T21:26:08.906Z,2.70
2022-10-22T21:28:37.398Z,3.00
2022-10-22T21:31:07.002Z,2.83
2022-10-22T21:33:37.028Z,3.00
2022-10-22T21:36:06.054Z,2.83
2022-10-22T21:38:34.002Z,3.17
2022-10-22T21:41:06.494Z,2.88
2022-10-22T21:43:34.289Z,3.05
2022-10-22T21:46:07.995Z,3.05
2022-10-22T21:48:36.493Z,2.83
2022-10-22T21:51:08.823Z,2.63
2022-10-22T21:53:37.052Z,2.63
2022-10-22T21:56:07.404Z,2.70
2022-10-22T21:58:35.778Z,3.00
2022-10-22T22:01:04.222Z,2.50
2022-10-22T22:03:31.943Z,2.70
2022-10-22T22:06:00.272Z,2.70
2022-10-22T22:08:28.567Z,2.97
2022-10-22T22:11:02.098Z,2.45
2022-10-22T22:13:31.499Z,2.40
2022-10-22T22:16:03.516Z,2.43
2022-10-22T22:18:31.086Z,2.80
2022-10-22T22:20:59.758Z,2.90
2022-10-22T22:23:27.666Z,2.63
2022-10-22T22:25:59.780Z,2.40
2022-10-22T22:28:27.665Z,2.80
2022-10-22T22:30:57.002Z,2.63
2022-10-22T22:33:24.978Z,2.63
2022-10-22T22:35:52.694Z,2.72
2022-10-22T22:38:20.241Z,3.20
2022-10-22T22:40:47.845Z,2.80
2022-10-22T22:43:15.422Z,2.78
2022-10-22T22:45:42.982Z,2.78
2022-10-22T22:48:11.873Z,2.60
2022-10-22T22:50:39.438Z,2.38
2022-10-22T22:53:07.006Z,2.38
2022-10-22T22:55:34.574Z,2.40
2022-10-22T22:58:02.121Z,2.40
2022-10-22T23:00:29.835Z,2.33
2022-10-22T23:02:57.504Z,2.60
2022-10-22T23:05:26.401Z,2.53
2022-10-22T23:07:53.989Z,2.58
2022-10-22T23:10:21.777Z,2.30
2022-10-22T23:12:50.621Z,2.17
2022-10-22T23:15:18.361Z,2.20
2022-10-22T23:17:45.926Z,2.53
2022-10-22T23:20:13.727Z,2.40
2022-10-22T23:22:42.837Z,2.40
2022-10-22T23:25:10.830Z,2.58
2022-10-22T23:27:38.395Z,2.50
2022-10-22T23:30:06.918Z,2.70
2022-10-22T23:32:34.553Z,2.80
2022-10-22T23:35:02.094Z,2.70
2022-10-22T23:37:29.615Z,2.57
2022-10-22T23:39:58.589Z,2.83
2022-10-22T23:42:26.190Z,2.60
2022-10-22T23:44:53.741Z,2.60
2022-10-22T23:47:21.514Z,2.80
2022-10-22T23:49:49.078Z,2.72
2022-10-22T23:52:16.678Z,2.35
2022-10-22T23:54:44.683Z,2.40
2022-10-22T23:57:13.650Z,2.45
2022-10-22T23:59:41.206Z,2.40
